sensor_id;sensor_type;location;lat;lon;timestamp;P1;durP1;ratioP1;P2;durP2;ratioP2
13463;SDS011;6804;48.774;9.174;2023-04-15T00:00:27;5.57;;;2.70;;
13463;SDS011;6804;48.774;9.174;2023-04-15T00:02:58;2.90;;;2.60;;
13463;SDS011;6804;48.774;9.174;2023-04-15T00:05:28;4.80;;;2.70;;
13463;SDS011;6804;48.774;9.174;2023-04-15T00:07:56;5.33;;;2.63;;
13463;SDS011;6804;48.774;9.174;2023-04-15T00:10:27;2.77;;;2.33;;
13463;SDS011;6804;48.774;9.174;2023-04-15T00:12:54;6.03;;;2.60;;
13463;SDS011;6804;48.774;9.174;2023-04-15T00:15:22;6.57;;;2.70;;
13463;SDS011;6804;48.774;9.174;2023-04-15T00:17:50;4.13;;;2.50;;
13463;SDS011;6804;48.774;9.174;2023-04-15T00:20:19;4.33;;;2.50;;
13463;SDS011;6804;48.774;9.174;2023-04-15T00:22:49;6.47;;;2.87;;
13463;SDS011;6804;48.774;9.174;2023-04-15T00:25:17;6.43;;;3.10;;
13463;SDS011;6804;48.774;9.174;2023-04-15T00:27:49;5.63;;;2.90;;
13463;SDS011;6804;48.774;9.174;2023-04-15T00:30:18;6.63;;;2.53;;
13463;SDS011;6804;48.774;9.174;2023-04-15T00:32:46;4.23;;;2.70;;
13463;SDS011;6804;48.774;9.174;2023-04-15T00:35:14;6.07;;;3.00;;
13463;SDS011;6804;48.774;9.174;2023-04-15T00:37:41;4.97;;;2.90;;
13463;SDS011;6804;48.774;9.174;2023-04-15T00:40:09;5.43;;;2.30;;
13463;SDS011;6804;48.774;9.174;2023-04-15T00:42:39;8.47;;;4.77;;
13463;SDS011;6804;48.774;9.174;2023-04-15T00:45:13;7.43;;;3.20;;
13463;SDS011;6804;48.774;9.174;2023-04-15T00:47:41;3.50;;;2.23;;
13463;SDS011;6804;48.774;9.174;2023-04-15T00:50:10;6.90;;;3.00;;
13463;SDS011;6804;48.774;9.174;2023-04-15T00:52:40;6.30;;;3.43;;
13463;SDS011;6804;48.774;9.174;2023-04-15T00:55:07;6.77;;;3.33;;
13463;SDS011;6804;48.774;9.174;2023-04-15T00:57:35;5.93;;;2.77;;
13463;SDS011;6804;48.774;9.174;2023-04-15T01:00:03;3.70;;;2.63;;
13463;SDS011;6804;48.774;9.174;2023-04-15T01:02:34;5.93;;;2.60;;
13463;SDS011;6804;48.774;9.174;2023-04-15T01:05:05;4.33;;;2.53;;
13463;SDS011;6804;48.774;9.174;2023-04-15T01:07:35;4.43;;;2.30;;
13463;SDS011;6804;48.774;9.174;2023-04-15T01:10:03;4.33;;;2.23;;
13463;SDS011;6804;48.774;9.174;2023-04-15T01:12:31;3.73;;;2.23;;
13463;SDS011;6804;48.774;9.174;2023-04-15T01:15:05;4.30;;;2.27;;
13463;SDS011;6804;48.774;9.174;2023-04-15T01:17:36;4.77;;;2.53;;
13463;SDS011;6804;48.774;9.174;2023-04-15T01:20:04;5.20;;;2.43;;
13463;SDS011;6804;48.774;9.174;2023-04-15T01:22:34;5.57;;;2.50;;
13463;SDS011;6804;48.774;9.174;2023-04-15T01:25:04;7.13;;;2.30;;
13463;SDS011;6804;48.774;9.174;2023-04-15T01:27:37;4.90;;;1.80;;
13463;SDS011;6804;48.774;9.174;2023-04-15T01:30:06;5.57;;;2.10;;
13463;SDS011;6804;48.774;9.174;2023-04-15T01:32:35;4.70;;;2.20;;
13463;SDS011;6804;48.774;9.174;2023-04-15T01:35:04;3.67;;;2.23;;
13463;SDS011;6804;48.774;9.174;2023-04-15T01:37:35;4.50;;;2.30;;
13463;SDS011;6804;48.774;9.174;2023-04-15T01:40:03;4.53;;;2.33;;
13463;SDS011;6804;48.774;9.174;2023-04-15T01:42:32;5.73;;;2.70;;
13463;SDS011;6804;48.774;9.174;2023-04-15T01:45:04;3.57;;;2.37;;
13463;SDS011;6804;48.774;9.174;2023-04-15T01:47:32;3.90;;;2.50;;
13463;SDS011;6804;48.774;9.174;2023-04-15T01:49:59;4.03;;;2.10;;
13463;SDS011;6804;48.774;9.174;2023-04-15T01:52:32;6.03;;;2.50;;
13463;SDS011;6804;48.774;9.174;2023-04-15T01:54:59;3.47;;;1.90;;
13463;SDS011;6804;48.774;9.174;2023-04-15T01:57:33;4.87;;;2.27;;
13463;SDS011;6804;48.774;9.174;2023-04-15T02:00:01;3.40;;;2.43;;
13463;SDS011;6804;48.774;9.174;2023-04-15T02:02:34;5.30;;;2.10;;
13463;SDS011;6804;48.774;9.174;2023-04-15T02:05:02;6.80;;;2.60;;
13463;SDS011;6804;48.774;9.174;2023-04-15T02:07:29;3.93;;;2.47;;
13463;SDS011;6804;48.774;9.174;2023-04-15T02:09:57;4.13;;;2.40;;
13463;SDS011;6804;48.774;9.174;2023-04-15T02:12:24;3.50;;;2.53;;
13463;SDS011;6804;48.774;9.174;2023-04-15T02:14:52;5.83;;;2.20;;
13463;SDS011;6804;48.774;9.174;2023-04-15T02:17:21;3.63;;;2.20;;
13463;SDS011;6804;48.774;9.174;2023-04-15T02:19:55;4.17;;;1.90;;
13463;SDS011;6804;48.774;9.174;2023-04-15T02:22:23;4.50;;;2.43;;
13463;SDS011;6804;48.774;9.174;2023-04-15T02:24:51;4.03;;;2.00;;
13463;SDS011;6804;48.774;9.174;2023-04-15T02:27:18;3.50;;;1.90;;
13463;SDS011;6804;48.774;9.174;2023-04-15T02:29:46;5.63;;;3.23;;
13463;SDS011;6804;48.774;9.174;2023-04-15T02:32:15;3.97;;;2.60;;
13463;SDS011;6804;48.774;9.174;2023-04-15T02:34:42;4.10;;;2.10;;
13463;SDS011;6804;48.774;9.174;2023-04-15T02:37:12;6.17;;;2.47;;
13463;SDS011;6804;48.774;9.174;2023-04-15T02:39:40;3.20;;;2.00;;
13463;SDS011;6804;48.774;9.174;2023-04-15T02:42:07;4.47;;;2.00;;
13463;SDS011;6804;48.774;9.174;2023-04-15T02:44:37;6.87;;;2.33;;
13463;SDS011;6804;48.774;9.174;2023-04-15T02:47:04;4.43;;;2.47;;
13463;SDS011;6804;48.774;9.174;2023-04-15T02:49:34;6.97;;;2.70;;
13463;SDS011;6804;48.774;9.174;2023-04-15T02:52:04;3.33;;;2.17;;
13463;SDS011;6804;48.774;9.174;2023-04-15T02:54:38;4.57;;;2.10;;
13463;SDS011;6804;48.774;9.174;2023-04-15T02:57:05;4.97;;;2.50;;
13463;SDS011;6804;48.774;9.174;2023-04-15T02:59:35;3.37;;;2.17;;
13463;SDS011;6804;48.774;9.174;2023-04-15T03:02:03;3.53;;;2.27;;
13463;SDS011;6804;48.774;9.174;2023-04-15T03:04:32;3.90;;;2.10;;
13463;SDS011;6804;48.774;9.174;2023-04-15T03:07:02;4.30;;;1.83;;
13463;SDS011;6804;48.774;9.174;2023-04-15T03:09:30;5.27;;;2.00;;
13463;SDS011;6804;48.774;9.174;2023-04-15T03:11:59;4.93;;;1.87;;
13463;SDS011;6804;48.774;9.174;2023-04-15T03:14:26;4.47;;;2.30;;
13463;SDS011;6804;48.774;9.174;2023-04-15T03:16:53;3.87;;;2.00;;
13463;SDS011;6804;48.774;9.174;2023-04-15T03:19:23;3.43;;;1.80;;
13463;SDS011;6804;48.774;9.174;2023-04-15T03:21:56;5.17;;;2.50;;
13463;SDS011;6804;48.774;9.174;2023-04-15T03:24:23;5.13;;;2.07;;
13463;SDS011;6804;48.774;9.174;2023-04-15T03:26:53;3.80;;;1.77;;
13463;SDS011;6804;48.774;9.174;2023-04-15T03:29:29;4.33;;;1.90;;
13463;SDS011;6804;48.774;9.174;2023-04-15T03:31:59;5.60;;;2.10;;
13463;SDS011;6804;48.774;9.174;2023-04-15T03:34:26;5.97;;;1.80;;
13463;SDS011;6804;48.774;9.174;2023-04-15T03:36:53;3.40;;;1.63;;
13463;SDS011;6804;48.774;9.174;2023-04-15T03:39:24;3.33;;;2.30;;
13463;SDS011;6804;48.774;9.174;2023-04-15T03:41:55;2.80;;;1.80;;
13463;SDS011;6804;48.774;9.174;2023-04-15T03:44:27;4.27;;;2.07;;
13463;SDS011;6804;48.774;9.174;2023-04-15T03:46:54;5.37;;;2.13;;
13463;SDS011;6804;48.774;9.174;2023-04-15T03:49:22;4.23;;;1.93;;
13463;SDS011;6804;48.774;9.174;2023-04-15T03:51:49;4.77;;;1.77;;
13463;SDS011;6804;48.774;9.174;2023-04-15T03:54:16;2.40;;;1.80;;
13463;SDS011;6804;48.774;9.174;2023-04-15T03:56:46;3.13;;;1.83;;
13463;SDS011;6804;48.774;9.174;2023-04-15T03:59:13;2.90;;;1.90;;
13463;SDS011;6804;48.774;9.174;2023-04-15T04:01:46;2.40;;;2.17;;
13463;SDS011;6804;48.774;9.174;2023-04-15T04:04:13;3.87;;;1.97;;
13463;SDS011;6804;48.774;9.174;2023-04-15T04:06:41;2.63;;;1.67;;
13463;SDS011;6804;48.774;9.174;2023-04-15T04:09:08;3.20;;;1.80;;
13463;SDS011;6804;48.774;9.174;2023-04-15T04:11:35;5.67;;;2.27;;
13463;SDS011;6804;48.774;9.174;2023-04-15T04:14:05;4.93;;;2.17;;
13463;SDS011;6804;48.774;9.174;2023-04-15T04:16:35;4.83;;;2.20;;
13463;SDS011;6804;48.774;9.174;2023-04-15T04:19:07;3.50;;;2.43;;
13463;SDS011;6804;48.774;9.174;2023-04-15T04:21:37;3.87;;;2.00;;
13463;SDS011;6804;48.774;9.174;2023-04-15T04:24:04;5.13;;;2.30;;
13463;SDS011;6804;48.774;9.174;2023-04-15T04:26:32;4.37;;;2.00;;
13463;SDS011;6804;48.774;9.174;2023-04-15T04:28:59;5.47;;;2.60;;
13463;SDS011;6804;48.774;9.174;2023-04-15T04:31:29;3.63;;;2.37;;
13463;SDS011;6804;48.774;9.174;2023-04-15T04:33:59;3.23;;;1.97;;
13463;SDS011;6804;48.774;9.174;2023-04-15T04:36:28;3.63;;;2.03;;
13463;SDS011;6804;48.774;9.174;2023-04-15T04:38:55;3.27;;;1.87;;
13463;SDS011;6804;48.774;9.174;2023-04-15T04:41:23;7.70;;;2.80;;
13463;SDS011;6804;48.774;9.174;2023-04-15T04:43:52;3.70;;;2.23;;
13463;SDS011;6804;48.774;9.174;2023-04-15T04:46:20;6.60;;;2.10;;
13463;SDS011;6804;48.774;9.174;2023-04-15T04:48:48;3.37;;;2.13;;
13463;SDS011;6804;48.774;9.174;2023-04-15T04:51:15;3.17;;;1.80;;
13463;SDS011;6804;48.774;9.174;2023-04-15T04:53:47;4.73;;;2.20;;
13463;SDS011;6804;48.774;9.174;2023-04-15T04:56:14;4.10;;;2.10;;
13463;SDS011;6804;48.774;9.174;2023-04-15T04:58:42;4.27;;;2.47;;
13463;SDS011;6804;48.774;9.174;2023-04-15T05:01:09;3.83;;;2.10;;
13463;SDS011;6804;48.774;9.174;2023-04-15T05:03:37;4.53;;;1.87;;
13463;SDS011;6804;48.774;9.174;2023-04-15T05:06:05;2.43;;;1.60;;
13463;SDS011;6804;48.774;9.174;2023-04-15T05:08:40;4.70;;;1.93;;
13463;SDS011;6804;48.774;9.174;2023-04-15T05:11:08;2.70;;;2.00;;
13463;SDS011;6804;48.774;9.174;2023-04-15T05:13:36;3.13;;;1.73;;
13463;SDS011;6804;48.774;9.174;2023-04-15T05:16:04;3.10;;;2.00;;
13463;SDS011;6804;48.774;9.174;2023-04-15T05:18:31;4.43;;;2.47;;
13463;SDS011;6804;48.774;9.174;2023-04-15T05:21:01;3.53;;;2.07;;
13463;SDS011;6804;48.774;9.174;2023-04-15T05:23:32;4.37;;;2.30;;
13463;SDS011;6804;48.774;9.174;2023-04-15T05:26:02;3.70;;;2.30;;
13463;SDS011;6804;48.774;9.174;2023-04-15T05:28:31;5.17;;;2.80;;
13463;SDS011;6804;48.774;9.174;2023-04-15T05:30:58;3.77;;;2.20;;
13463;SDS011;6804;48.774;9.174;2023-04-15T05:33:25;3.17;;;2.13;;
13463;SDS011;6804;48.774;9.174;2023-04-15T05:35:53;4.90;;;2.50;;
13463;SDS011;6804;48.774;9.174;2023-04-15T05:38:20;4.23;;;1.80;;
13463;SDS011;6804;48.774;9.174;2023-04-15T05:40:47;3.23;;;2.20;;
13463;SDS011;6804;48.774;9.174;2023-04-15T05:43:15;2.70;;;1.70;;
13463;SDS011;6804;48.774;9.174;2023-04-15T05:45:43;2.30;;;2.00;;
13463;SDS011;6804;48.774;9.174;2023-04-15T05:48:10;3.87;;;2.10;;
13463;SDS011;6804;48.774;9.174;2023-04-15T05:50:39;5.57;;;2.13;;
13463;SDS011;6804;48.774;9.174;2023-04-15T05:53:07;5.20;;;2.40;;
13463;SDS011;6804;48.774;9.174;2023-04-15T05:55:34;5.10;;;2.47;;
13463;SDS011;6804;48.774;9.174;2023-04-15T05:58:01;3.70;;;2.33;;
13463;SDS011;6804;48.774;9.174;2023-04-15T06:00:32;3.70;;;2.30;;
13463;SDS011;6804;48.774;9.174;2023-04-15T06:03:00;3.57;;;2.47;;
13463;SDS011;6804;48.774;9.174;2023-04-15T06:05:28;4.43;;;2.47;;
13463;SDS011;6804;48.774;9.174;2023-04-15T06:07:58;4.03;;;2.53;;
13463;SDS011;6804;48.774;9.174;2023-04-15T06:10:26;3.17;;;2.23;;
13463;SDS011;6804;48.774;9.174;2023-04-15T06:12:53;7.50;;;2.70;;
13463;SDS011;6804;48.774;9.174;2023-04-15T06:15:20;4.33;;;2.43;;
13463;SDS011;6804;48.774;9.174;2023-04-15T06:17:55;4.17;;;2.17;;
13463;SDS011;6804;48.774;9.174;2023-04-15T06:20:24;5.07;;;2.60;;
13463;SDS011;6804;48.774;9.174;2023-04-15T06:22:54;5.07;;;2.90;;
13463;SDS011;6804;48.774;9.174;2023-04-15T06:25:21;3.43;;;2.37;;
13463;SDS011;6804;48.774;9.174;2023-04-15T06:27:48;5.17;;;2.50;;
13463;SDS011;6804;48.774;9.174;2023-04-15T06:30:16;4.97;;;2.57;;
13463;SDS011;6804;48.774;9.174;2023-04-15T06:32:43;3.43;;;2.40;;
13463;SDS011;6804;48.774;9.174;2023-04-15T06:35:10;5.63;;;3.03;;
13463;SDS011;6804;48.774;9.174;2023-04-15T06:37:39;3.80;;;2.70;;
13463;SDS011;6804;48.774;9.174;2023-04-15T06:40:10;6.10;;;2.60;;
13463;SDS011;6804;48.774;9.174;2023-04-15T06:42:38;7.07;;;3.80;;
13463;SDS011;6804;48.774;9.174;2023-04-15T06:45:12;7.03;;;3.53;;
13463;SDS011;6804;48.774;9.174;2023-04-15T06:47:45;6.60;;;3.70;;
13463;SDS011;6804;48.774;9.174;2023-04-15T06:50:12;6.37;;;4.40;;
13463;SDS011;6804;48.774;9.174;2023-04-15T06:52:46;5.77;;;3.80;;
13463;SDS011;6804;48.774;9.174;2023-04-15T06:55:14;7.27;;;4.07;;
13463;SDS011;6804;48.774;9.174;2023-04-15T06:57:44;6.90;;;3.83;;
13463;SDS011;6804;48.774;9.174;2023-04-15T07:00:14;7.20;;;3.93;;
13463;SDS011;6804;48.774;9.174;2023-04-15T07:02:42;6.27;;;3.93;;
13463;SDS011;6804;48.774;9.174;2023-04-15T07:05:10;7.23;;;4.27;;
13463;SDS011;6804;48.774;9.174;2023-04-15T07:07:40;7.20;;;4.43;;
13463;SDS011;6804;48.774;9.174;2023-04-15T07:10:11;6.37;;;4.20;;
13463;SDS011;6804;48.774;9.174;2023-04-15T07:12:39;7.50;;;4.37;;
13463;SDS011;6804;48.774;9.174;2023-04-15T07:15:09;5.50;;;4.03;;
13463;SDS011;6804;48.774;9.174;2023-04-15T07:17:42;6.37;;;4.00;;
13463;SDS011;6804;48.774;9.174;2023-04-15T07:20:11;6.37;;;4.00;;
13463;SDS011;6804;48.774;9.174;2023-04-15T07:22:39;7.43;;;4.30;;
13463;SDS011;6804;48.774;9.174;2023-04-15T07:25:11;7.27;;;4.03;;
13463;SDS011;6804;48.774;9.174;2023-04-15T07:27:41;7.23;;;4.07;;
13463;SDS011;6804;48.774;9.174;2023-04-15T07:30:14;7.23;;;4.20;;
13463;SDS011;6804;48.774;9.174;2023-04-15T07:32:42;6.60;;;4.47;;
13463;SDS011;6804;48.774;9.174;2023-04-15T07:35:12;6.00;;;4.10;;
13463;SDS011;6804;48.774;9.174;2023-04-15T07:37:43;5.37;;;4.00;;
13463;SDS011;6804;48.774;9.174;2023-04-15T07:40:12;8.27;;;4.33;;
13463;SDS011;6804;48.774;9.174;2023-04-15T07:42:40;6.50;;;4.57;;
13463;SDS011;6804;48.774;9.174;2023-04-15T07:45:08;6.57;;;4.03;;
13463;SDS011;6804;48.774;9.174;2023-04-15T07:47:37;8.77;;;3.83;;
13463;SDS011;6804;48.774;9.174;2023-04-15T07:50:05;7.43;;;3.97;;
13463;SDS011;6804;48.774;9.174;2023-04-15T07:52:33;5.00;;;3.37;;
13463;SDS011;6804;48.774;9.174;2023-04-15T07:55:05;5.73;;;4.13;;
13463;SDS011;6804;48.774;9.174;2023-04-15T07:57:35;6.33;;;3.67;;
13463;SDS011;6804;48.774;9.174;2023-04-15T08:00:06;4.63;;;3.43;;
13463;SDS011;6804;48.774;9.174;2023-04-15T08:02:34;5.37;;;3.23;;
13463;SDS011;6804;48.774;9.174;2023-04-15T08:05:01;6.37;;;3.80;;
13463;SDS011;6804;48.774;9.174;2023-04-15T08:07:29;4.53;;;3.77;;
13463;SDS011;6804;48.774;9.174;2023-04-15T08:09:57;6.60;;;3.47;;
13463;SDS011;6804;48.774;9.174;2023-04-15T08:12:24;6.07;;;3.53;;
13463;SDS011;6804;48.774;9.174;2023-04-15T08:14:53;5.17;;;3.60;;
13463;SDS011;6804;48.774;9.174;2023-04-15T08:17:21;7.60;;;3.53;;
13463;SDS011;6804;48.774;9.174;2023-04-15T08:19:52;4.03;;;3.40;;
13463;SDS011;6804;48.774;9.174;2023-04-15T08:22:21;5.63;;;3.40;;
13463;SDS011;6804;48.774;9.174;2023-04-15T08:24:49;5.83;;;3.57;;
13463;SDS011;6804;48.774;9.174;2023-04-15T08:27:17;5.90;;;3.00;;
13463;SDS011;6804;48.774;9.174;2023-04-15T08:29:45;4.73;;;3.20;;
13463;SDS011;6804;48.774;9.174;2023-04-15T08:32:16;6.33;;;3.60;;
13463;SDS011;6804;48.774;9.174;2023-04-15T08:34:47;6.67;;;3.30;;
13463;SDS011;6804;48.774;9.174;2023-04-15T08:37:14;5.33;;;3.20;;
13463;SDS011;6804;48.774;9.174;2023-04-15T08:39:42;6.73;;;3.43;;
13463;SDS011;6804;48.774;9.174;2023-04-15T08:42:11;9.23;;;3.47;;
13463;SDS011;6804;48.774;9.174;2023-04-15T08:44:42;3.97;;;2.80;;
13463;SDS011;6804;48.774;9.174;2023-04-15T08:47:14;10.67;;;3.80;;
13463;SDS011;6804;48.774;9.174;2023-04-15T08:49:46;7.50;;;2.93;;
13463;SDS011;6804;48.774;9.174;2023-04-15T08:52:18;6.17;;;3.07;;
13463;SDS011;6804;48.774;9.174;2023-04-15T08:54:46;5.30;;;3.00;;
13463;SDS011;6804;48.774;9.174;2023-04-15T08:57:14;4.87;;;3.27;;
13463;SDS011;6804;48.774;9.174;2023-04-15T08:59:43;5.50;;;3.17;;
13463;SDS011;6804;48.774;9.174;2023-04-15T09:02:17;6.77;;;3.43;;
13463;SDS011;6804;48.774;9.174;2023-04-15T09:04:45;7.40;;;3.30;;
13463;SDS011;6804;48.774;9.174;2023-04-15T09:07:13;5.57;;;3.03;;
13463;SDS011;6804;48.774;9.174;2023-04-15T09:09:43;5.37;;;2.90;;
13463;SDS011;6804;48.774;9.174;2023-04-15T09:12:10;4.40;;;3.20;;
13463;SDS011;6804;48.774;9.174;2023-04-15T09:14:38;5.13;;;2.87;;
13463;SDS011;6804;48.774;9.174;2023-04-15T09:17:09;5.33;;;3.00;;
13463;SDS011;6804;48.774;9.174;2023-04-15T09:19:38;5.13;;;3.40;;
13463;SDS011;6804;48.774;9.174;2023-04-15T09:22:06;6.03;;;2.87;;
13463;SDS011;6804;48.774;9.174;2023-04-15T09:24:38;7.23;;;2.90;;
13463;SDS011;6804;48.774;9.174;2023-04-15T09:27:07;4.10;;;2.93;;
13463;SDS011;6804;48.774;9.174;2023-04-15T09:29:35;4.83;;;2.80;;
13463;SDS011;6804;48.774;9.174;2023-04-15T09:32:08;6.23;;;3.13;;
13463;SDS011;6804;48.774;9.174;2023-04-15T09:34:38;6.67;;;2.53;;
13463;SDS011;6804;48.774;9.174;2023-04-15T09:37:05;4.23;;;2.17;;
13463;SDS011;6804;48.774;9.174;2023-04-15T09:39:50;5.43;;;2.43;;
13463;SDS011;6804;48.774;9.174;2023-04-15T09:42:19;3.00;;;2.00;;
13463;SDS011;6804;48.774;9.174;2023-04-15T09:44:48;4.73;;;2.50;;
13463;SDS011;6804;48.774;9.174;2023-04-15T09:47:26;4.13;;;1.97;;
13463;SDS011;6804;48.774;9.174;2023-04-15T09:49:56;3.70;;;2.10;;
13463;SDS011;6804;48.774;9.174;2023-04-15T09:52:27;3.47;;;1.97;;
13463;SDS011;6804;48.774;9.174;2023-04-15T09:54:56;3.23;;;1.80;;
13463;SDS011;6804;48.774;9.174;2023-04-15T10:00:14;2.30;;;2.10;;
13463;SDS011;6804;48.774;9.174;2023-04-15T10:02:45;2.60;;;2.10;;
13463;SDS011;6804;48.774;9.174;2023-04-15T10:05:18;3.87;;;2.10;;
13463;SDS011;6804;48.774;9.174;2023-04-15T10:07:46;3.90;;;2.30;;
13463;SDS011;6804;48.774;9.174;2023-04-15T10:10:14;5.03;;;2.30;;
13463;SDS011;6804;48.774;9.174;2023-04-15T10:12:45;2.70;;;2.00;;
13463;SDS011;6804;48.774;9.174;2023-04-15T10:15:16;3.97;;;2.17;;
13463;SDS011;6804;48.774;9.174;2023-04-15T10:17:46;3.23;;;2.10;;
13463;SDS011;6804;48.774;9.174;2023-04-15T10:20:15;3.20;;;2.00;;
13463;SDS011;6804;48.774;9.174;2023-04-15T10:22:48;3.03;;;1.83;;
13463;SDS011;6804;48.774;9.174;2023-04-15T10:25:21;2.93;;;2.10;;
13463;SDS011;6804;48.774;9.174;2023-04-15T10:27:49;5.30;;;2.50;;
13463;SDS011;6804;48.774;9.174;2023-04-15T10:30:17;4.47;;;2.10;;
13463;SDS011;6804;48.774;9.174;2023-04-15T10:32:48;3.97;;;2.23;;
13463;SDS011;6804;48.774;9.174;2023-04-15T10:35:19;4.97;;;2.37;;
13463;SDS011;6804;48.774;9.174;2023-04-15T10:37:50;4.17;;;2.50;;
13463;SDS011;6804;48.774;9.174;2023-04-15T10:40:29;3.67;;;2.40;;
13463;SDS011;6804;48.774;9.174;2023-04-15T10:43:01;4.97;;;2.60;;
13463;SDS011;6804;48.774;9.174;2023-04-15T10:45:31;6.77;;;2.40;;
13463;SDS011;6804;48.774;9.174;2023-04-15T10:48:01;4.47;;;2.47;;
13463;SDS011;6804;48.774;9.174;2023-04-15T10:50:34;4.43;;;2.90;;
13463;SDS011;6804;48.774;9.174;2023-04-15T10:53:03;6.53;;;2.83;;
13463;SDS011;6804;48.774;9.174;2023-04-15T10:55:31;4.70;;;2.67;;
13463;SDS011;6804;48.774;9.174;2023-04-15T10:58:01;5.73;;;2.80;;
13463;SDS011;6804;48.774;9.174;2023-04-15T11:00:29;5.00;;;2.70;;
13463;SDS011;6804;48.774;9.174;2023-04-15T11:03:04;5.17;;;3.60;;
13463;SDS011;6804;48.774;9.174;2023-04-15T11:05:50;5.87;;;3.33;;
13463;SDS011;6804;48.774;9.174;2023-04-15T11:08:18;3.97;;;2.60;;
13463;SDS011;6804;48.774;9.174;2023-04-15T11:11:07;4.67;;;2.40;;
13463;SDS011;6804;48.774;9.174;2023-04-15T11:13:35;3.30;;;2.77;;
13463;SDS011;6804;48.774;9.174;2023-04-15T11:16:13;4.07;;;2.40;;
13463;SDS011;6804;48.774;9.174;2023-04-15T11:18:40;3.30;;;2.60;;
13463;SDS011;6804;48.774;9.174;2023-04-15T11:21:09;3.20;;;2.20;;
13463;SDS011;6804;48.774;9.174;2023-04-15T11:23:42;5.37;;;2.67;;
13463;SDS011;6804;48.774;9.174;2023-04-15T11:26:11;4.80;;;2.33;;
13463;SDS011;6804;48.774;9.174;2023-04-15T11:28:42;3.33;;;2.23;;
13463;SDS011;6804;48.774;9.174;2023-04-15T11:31:14;3.73;;;2.30;;
13463;SDS011;6804;48.774;9.174;2023-04-15T11:33:44;3.10;;;2.20;;
13463;SDS011;6804;48.774;9.174;2023-04-15T11:36:14;4.83;;;2.57;;
13463;SDS011;6804;48.774;9.174;2023-04-15T11:38:42;3.73;;;2.33;;
13463;SDS011;6804;48.774;9.174;2023-04-15T11:41:13;4.80;;;2.60;;
13463;SDS011;6804;48.774;9.174;2023-04-15T11:43:49;3.03;;;2.63;;
13463;SDS011;6804;48.774;9.174;2023-04-15T11:46:19;4.40;;;2.13;;
13463;SDS011;6804;48.774;9.174;2023-04-15T11:48:54;4.57;;;2.40;;
13463;SDS011;6804;48.774;9.174;2023-04-15T11:51:23;6.07;;;2.63;;
13463;SDS011;6804;48.774;9.174;2023-04-15T11:53:53;4.97;;;2.70;;
13463;SDS011;6804;48.774;9.174;2023-04-15T11:56:24;4.20;;;2.63;;
13463;SDS011;6804;48.774;9.174;2023-04-15T11:58:52;3.90;;;2.27;;
13463;SDS011;6804;48.774;9.174;2023-04-15T12:01:29;4.33;;;2.53;;
13463;SDS011;6804;48.774;9.174;2023-04-15T12:03:58;4.63;;;2.53;;
13463;SDS011;6804;48.774;9.174;2023-04-15T12:06:37;3.70;;;2.63;;
13463;SDS011;6804;48.774;9.174;2023-04-15T12:09:08;4.90;;;2.63;;
13463;SDS011;6804;48.774;9.174;2023-04-15T12:11:41;3.17;;;2.50;;
13463;SDS011;6804;48.774;9.174;2023-04-15T12:14:20;3.50;;;2.47;;
13463;SDS011;6804;48.774;9.174;2023-04-15T12:16:53;4.37;;;2.53;;
13463;SDS011;6804;48.774;9.174;2023-04-15T12:19:23;5.00;;;2.97;;
13463;SDS011;6804;48.774;9.174;2023-04-15T12:21:58;6.10;;;3.30;;
13463;SDS011;6804;48.774;9.174;2023-04-15T12:24:27;4.93;;;3.10;;
13463;SDS011;6804;48.774;9.174;2023-04-15T12:27:00;4.90;;;3.07;;
13463;SDS011;6804;48.774;9.174;2023-04-15T12:29:31;7.57;;;2.67;;
13463;SDS011;6804;48.774;9.174;2023-04-15T12:32:03;4.43;;;2.30;;
13463;SDS011;6804;48.774;9.174;2023-04-15T12:34:33;2.90;;;2.10;;
13463;SDS011;6804;48.774;9.174;2023-04-15T12:37:07;5.03;;;2.40;;
13463;SDS011;6804;48.774;9.174;2023-04-15T12:39:35;3.70;;;2.43;;
13463;SDS011;6804;48.774;9.174;2023-04-15T12:42:04;3.47;;;2.60;;
13463;SDS011;6804;48.774;9.174;2023-04-15T12:44:32;3.93;;;2.60;;
13463;SDS011;6804;48.774;9.174;2023-04-15T12:47:01;5.73;;;3.07;;
13463;SDS011;6804;48.774;9.174;2023-04-15T12:49:34;5.30;;;3.07;;
13463;SDS011;6804;48.774;9.174;2023-04-15T12:52:02;3.00;;;2.70;;
13463;SDS011;6804;48.774;9.174;2023-04-15T12:54:31;2.73;;;2.40;;
13463;SDS011;6804;48.774;9.174;2023-04-15T12:57:05;4.63;;;3.10;;
13463;SDS011;6804;48.774;9.174;2023-04-15T12:59:35;4.43;;;2.97;;
13463;SDS011;6804;48.774;9.174;2023-04-15T13:02:03;3.57;;;2.93;;
13463;SDS011;6804;48.774;9.174;2023-04-15T13:04:30;3.03;;;2.13;;
13463;SDS011;6804;48.774;9.174;2023-04-15T13:07:06;5.03;;;2.90;;
13463;SDS011;6804;48.774;9.174;2023-04-15T13:09:38;3.37;;;2.60;;
13463;SDS011;6804;48.774;9.174;2023-04-15T13:12:07;3.73;;;2.87;;
13463;SDS011;6804;48.774;9.174;2023-04-15T13:14:34;4.57;;;2.90;;
13463;SDS011;6804;48.774;9.174;2023-04-15T13:17:01;5.40;;;2.57;;
13463;SDS011;6804;48.774;9.174;2023-04-15T13:19:37;3.17;;;2.70;;
13463;SDS011;6804;48.774;9.174;2023-04-15T13:22:07;4.03;;;2.70;;
13463;SDS011;6804;48.774;9.174;2023-04-15T13:24:35;3.37;;;2.80;;
13463;SDS011;6804;48.774;9.174;2023-04-15T13:27:05;7.90;;;4.10;;
13463;SDS011;6804;48.774;9.174;2023-04-15T13:29:35;13.00;;;7.83;;
13463;SDS011;6804;48.774;9.174;2023-04-15T13:32:04;7.73;;;4.90;;
13463;SDS011;6804;48.774;9.174;2023-04-15T13:34:32;4.97;;;2.63;;
13463;SDS011;6804;48.774;9.174;2023-04-15T13:37:05;9.93;;;5.53;;
13463;SDS011;6804;48.774;9.174;2023-04-15T13:39:33;15.77;;;8.80;;
13463;SDS011;6804;48.774;9.174;2023-04-15T13:42:04;4.00;;;3.40;;
13463;SDS011;6804;48.774;9.174;2023-04-15T13:44:31;2.27;;;2.00;;
13463;SDS011;6804;48.774;9.174;2023-04-15T13:46:59;3.83;;;2.33;;
13463;SDS011;6804;48.774;9.174;2023-04-15T13:49:27;3.20;;;1.73;;
13463;SDS011;6804;48.774;9.174;2023-04-15T13:51:57;5.67;;;2.80;;
13463;SDS011;6804;48.774;9.174;2023-04-15T13:54:25;1.73;;;1.40;;
13463;SDS011;6804;48.774;9.174;2023-04-15T13:56:53;3.90;;;1.50;;
13463;SDS011;6804;48.774;9.174;2023-04-15T13:59:27;2.23;;;1.57;;
13463;SDS011;6804;48.774;9.174;2023-04-15T14:01:57;2.93;;;1.20;;
13463;SDS011;6804;48.774;9.174;2023-04-15T14:04:27;1.93;;;1.37;;
13463;SDS011;6804;48.774;9.174;2023-04-15T14:06:56;2.80;;;1.60;;
13463;SDS011;6804;48.774;9.174;2023-04-15T14:09:24;2.33;;;1.43;;
13463;SDS011;6804;48.774;9.174;2023-04-15T14:11:55;2.57;;;1.83;;
13463;SDS011;6804;48.774;9.174;2023-04-15T14:14:27;2.03;;;1.50;;
13463;SDS011;6804;48.774;9.174;2023-04-15T14:16:56;1.40;;;1.07;;
13463;SDS011;6804;48.774;9.174;2023-04-15T14:19:24;2.73;;;1.10;;
13463;SDS011;6804;48.774;9.174;2023-04-15T14:21:52;2.03;;;1.10;;
13463;SDS011;6804;48.774;9.174;2023-04-15T14:24:22;1.50;;;1.00;;
13463;SDS011;6804;48.774;9.174;2023-04-15T14:26:58;2.70;;;1.37;;
13463;SDS011;6804;48.774;9.174;2023-04-15T14:29:27;2.33;;;1.17;;
13463;SDS011;6804;48.774;9.174;2023-04-15T14:31:55;2.93;;;1.60;;
13463;SDS011;6804;48.774;9.174;2023-04-15T14:34:25;2.77;;;1.40;;
13463;SDS011;6804;48.774;9.174;2023-04-15T14:36:53;1.90;;;1.40;;
13463;SDS011;6804;48.774;9.174;2023-04-15T14:39:23;3.40;;;1.50;;
13463;SDS011;6804;48.774;9.174;2023-04-15T14:41:51;2.57;;;1.80;;
13463;SDS011;6804;48.774;9.174;2023-04-15T14:44:19;1.20;;;1.00;;
13463;SDS011;6804;48.774;9.174;2023-04-15T14:46:48;1.80;;;1.20;;
13463;SDS011;6804;48.774;9.174;2023-04-15T14:49:17;2.43;;;1.13;;
13463;SDS011;6804;48.774;9.174;2023-04-15T14:51:44;2.63;;;1.53;;
13463;SDS011;6804;48.774;9.174;2023-04-15T14:54:15;2.83;;;1.33;;
13463;SDS011;6804;48.774;9.174;2023-04-15T14:56:44;2.57;;;1.47;;
13463;SDS011;6804;48.774;9.174;2023-04-15T14:59:12;2.33;;;1.50;;
13463;SDS011;6804;48.774;9.174;2023-04-15T15:01:39;4.27;;;1.67;;
13463;SDS011;6804;48.774;9.174;2023-04-15T15:04:08;2.63;;;1.60;;
13463;SDS011;6804;48.774;9.174;2023-04-15T15:06:36;1.83;;;1.50;;
13463;SDS011;6804;48.774;9.174;2023-04-15T15:09:04;2.87;;;1.60;;
13463;SDS011;6804;48.774;9.174;2023-04-15T15:11:34;2.80;;;1.53;;
13463;SDS011;6804;48.774;9.174;2023-04-15T15:14:02;1.60;;;1.50;;
13463;SDS011;6804;48.774;9.174;2023-04-15T15:16:30;2.00;;;1.47;;